sensor_id;sensor_type;location;lat;lon;timestamp;pressure;altitude;pressure_sealevel;temperature;humidity
52935;BME280;38802;50.198;19.796;2024-02-14T00:01:35;96620.04;;;1.96;94.03
52935;BME280;38802;50.198;19.796;2024-02-14T00:04:04;96619.50;;;1.92;94.08
52935;BME280;38802;50.198;19.796;2024-02-14T00:06:36;96617.67;;;1.91;94.19
52935;BME280;38802;50.198;19.796;2024-02-14T00:09:05;96623.11;;;1.88;94.14
52935;BME280;38802;50.198;19.796;2024-02-14T00:11:34;96622.63;;;1.83;94.21
52935;BME280;38802;50.198;19.796;2024-02-14T00:14:02;96621.34;;;1.81;94.29
52935;BME280;38802;50.198;19.796;2024-02-14T00:16:30;96620.05;;;1.75;94.45
52935;BME280;38802;50.198;19.796;2024-02-14T00:18:58;96622.95;;;1.70;94.61
52935;BME280;38802;50.198;19.796;2024-02-14T00:21:26;96620.52;;;1.67;94.88
52935;BME280;38802;50.198;19.796;2024-02-14T00:23:54;96622.33;;;1.65;94.98
52935;BME280;38802;50.198;19.796;2024-02-14T00:26:22;96627.56;;;1.63;95.28
52935;BME280;38802;50.198;19.796;2024-02-14T00:28:50;96635.55;;;1.60;95.35
52935;BME280;38802;50.198;19.796;2024-02-14T00:31:18;96632.71;;;1.58;95.33
52935;BME280;38802;50.198;19.796;2024-02-14T00:33:46;96637.29;;;1.59;95.40
52935;BME280;38802;50.198;19.796;2024-02-14T00:36:15;96636.27;;;1.59;95.51
52935;BME280;38802;50.198;19.796;2024-02-14T00:38:43;96638.85;;;1.59;95.52
52935;BME280;38802;50.198;19.796;2024-02-14T00:41:11;96641.30;;;1.57;95.62
52935;BME280;38802;50.198;19.796;2024-02-14T00:43:39;96640.51;;;1.56;95.79
52935;BME280;38802;50.198;19.796;2024-02-14T00:46:07;96642.98;;;1.54;95.77
52935;BME280;38802;50.198;19.796;2024-02-14T00:48:35;96643.08;;;1.55;95.84
52935;BME280;38802;50.198;19.796;2024-02-14T00:51:03;96647.48;;;1.57;95.84
52935;BME280;38802;50.198;19.796;2024-02-14T00:53:31;96648.77;;;1.59;95.87
52935;BME280;38802;50.198;19.796;2024-02-14T00:56:00;96650.37;;;1.57;95.91
52935;BME280;38802;50.198;19.796;2024-02-14T00:58:27;96650.21;;;1.57;95.94
52935;BME280;38802;50.198;19.796;2024-02-14T01:00:55;96649.85;;;1.57;96.02
52935;BME280;38802;50.198;19.796;2024-02-14T01:03:23;96655.17;;;1.57;96.10
52935;BME280;38802;50.198;19.796;2024-02-14T01:05:51;96653.84;;;1.56;96.11
52935;BME280;38802;50.198;19.796;2024-02-14T01:08:20;96657.28;;;1.56;96.23
52935;BME280;38802;50.198;19.796;2024-02-14T01:10:48;96659.68;;;1.56;96.27
52935;BME280;38802;50.198;19.796;2024-02-14T01:13:19;96660.46;;;1.53;96.34
52935;BME280;38802;50.198;19.796;2024-02-14T01:15:47;96662.74;;;1.52;96.48
52935;BME280;38802;50.198;19.796;2024-02-14T01:18:15;96659.08;;;1.50;96.45
52935;BME280;38802;50.198;19.796;2024-02-14T01:20:43;96660.05;;;1.51;96.55
52935;BME280;38802;50.198;19.796;2024-02-14T01:23:11;96661.28;;;1.54;96.60
52935;BME280;38802;50.198;19.796;2024-02-14T01:25:40;96660.13;;;1.57;96.69
52935;BME280;38802;50.198;19.796;2024-02-14T01:28:10;96655.80;;;1.59;96.64
52935;BME280;38802;50.198;19.796;2024-02-14T01:30:37;96655.26;;;1.64;96.85
52935;BME280;38802;50.198;19.796;2024-02-14T01:33:05;96655.52;;;1.62;96.73
52935;BME280;38802;50.198;19.796;2024-02-14T01:35:34;96658.74;;;1.62;96.71
52935;BME280;38802;50.198;19.796;2024-02-14T01:38:02;96660.48;;;1.57;96.71
52935;BME280;38802;50.198;19.796;2024-02-14T01:40:30;96652.38;;;1.59;96.91
52935;BME280;38802;50.198;19.796;2024-02-14T01:42:58;96653.05;;;1.59;96.91
52935;BME280;38802;50.198;19.796;2024-02-14T01:45:26;96652.55;;;1.54;96.87
52935;BME280;38802;50.198;19.796;2024-02-14T01:47:55;96647.59;;;1.50;96.90
52935;BME280;38802;50.198;19.796;2024-02-14T01:50:24;96651.38;;;1.49;96.98
52935;BME280;38802;50.198;19.796;2024-02-14T01:52:58;96653.27;;;1.49;96.97
52935;BME280;38802;50.198;19.796;2024-02-14T01:55:27;96652.71;;;1.50;97.21
52935;BME280;38802;50.198;19.796;2024-02-14T01:57:55;96649.04;;;1.57;97.20
52935;BME280;38802;50.198;19.796;2024-02-14T02:00:24;96646.36;;;1.55;97.11
52935;BME280;38802;50.198;19.796;2024-02-14T02:02:54;96644.63;;;1.56;97.18
52935;BME280;38802;50.198;19.796;2024-02-14T02:05:23;96643.45;;;1.55;97.13
52935;BME280;38802;50.198;19.796;2024-02-14T02:07:51;96643.63;;;1.51;97.09
52935;BME280;38802;50.198;19.796;2024-02-14T02:10:21;96645.46;;;1.52;97.18
52935;BME280;38802;50.198;19.796;2024-02-14T02:12:51;96648.16;;;1.53;97.30
52935;BME280;38802;50.198;19.796;2024-02-14T02:15:29;96643.88;;;1.53;97.23
52935;BME280;38802;50.198;19.796;2024-02-14T02:17:58;96644.74;;;1.57;97.50
52935;BME280;38802;50.198;19.796;2024-02-14T02:20:28;96648.16;;;1.65;97.59
52935;BME280;38802;50.198;19.796;2024-02-14T02:22:56;96647.23;;;1.72;97.73
52935;BME280;38802;50.198;19.796;2024-02-14T02:25:24;96646.16;;;1.77;97.66
52935;BME280;38802;50.198;19.796;2024-02-14T02:27:53;96647.65;;;1.79;97.45
52935;BME280;38802;50.198;19.796;2024-02-14T02:30:27;96650.04;;;1.70;97.20
52935;BME280;38802;50.198;19.796;2024-02-14T02:32:55;96647.05;;;1.64;97.29
52935;BME280;38802;50.198;19.796;2024-02-14T02:35:24;96644.60;;;1.69;97.63
52935;BME280;38802;50.198;19.796;2024-02-14T02:37:54;96647.82;;;1.74;97.60
52935;BME280;38802;50.198;19.796;2024-02-14T02:40:23;96647.06;;;1.80;97.59
52935;BME280;38802;50.198;19.796;2024-02-14T02:42:51;96643.80;;;1.84;97.60
52935;BME280;38802;50.198;19.796;2024-02-14T02:45:19;96648.50;;;1.87;97.38
52935;BME280;38802;50.198;19.796;2024-02-14T02:47:47;96648.67;;;1.87;97.47
52935;BME280;38802;50.198;19.796;2024-02-14T02:50:16;96646.79;;;1.91;97.44
52935;BME280;38802;50.198;19.796;2024-02-14T02:52:44;96646.83;;;1.90;97.23
52935;BME280;38802;50.198;19.796;2024-02-14T02:55:12;96644.19;;;1.92;97.37
52935;BME280;38802;50.198;19.796;2024-02-14T02:57:41;96647.48;;;1.91;97.21
52935;BME280;38802;50.198;19.796;2024-02-14T03:00:09;96655.55;;;1.91;97.33
52935;BME280;38802;50.198;19.796;2024-02-14T03:02:40;96654.96;;;1.92;97.30
52935;BME280;38802;50.198;19.796;2024-02-14T03:05:12;96654.88;;;1.94;97.30
52935;BME280;38802;50.198;19.796;2024-02-14T03:07:47;96656.13;;;1.97;97.31
52935;BME280;38802;50.198;19.796;2024-02-14T03:10:18;96660.48;;;1.95;97.21
52935;BME280;38802;50.198;19.796;2024-02-14T03:12:49;96664.94;;;1.92;97.22
52935;BME280;38802;50.198;19.796;2024-02-14T03:15:18;96664.33;;;1.94;97.37
52935;BME280;38802;50.198;19.796;2024-02-14T03:17:47;96665.02;;;1.94;97.35
52935;BME280;38802;50.198;19.796;2024-02-14T03:20:15;96668.37;;;2.00;97.58
52935;BME280;38802;50.198;19.796;2024-02-14T03:22:46;96667.98;;;2.05;97.58
52935;BME280;38802;50.198;19.796;2024-02-14T03:25:17;96668.46;;;2.06;97.44
52935;BME280;38802;50.198;19.796;2024-02-14T03:27:46;96668.45;;;2.10;97.35
52935;BME280;38802;50.198;19.796;2024-02-14T03:30:17;96667.34;;;2.12;97.35
52935;BME280;38802;50.198;19.796;2024-02-14T03:32:46;96666.15;;;2.07;96.95
52935;BME280;38802;50.198;19.796;2024-02-14T03:35:15;96665.13;;;2.03;96.88
52935;BME280;38802;50.198;19.796;2024-02-14T03:37:46;96671.24;;;2.00;96.75
52935;BME280;38802;50.198;19.796;2024-02-14T03:40:17;96674.09;;;1.98;96.89
52935;BME280;38802;50.198;19.796;2024-02-14T03:42:45;96672.41;;;1.97;96.91
52935;BME280;38802;50.198;19.796;2024-02-14T03:45:14;96673.35;;;1.99;97.06
52935;BME280;38802;50.198;19.796;2024-02-14T03:47:42;96672.73;;;2.02;97.04
52935;BME280;38802;50.198;19.796;2024-02-14T03:50:10;96670.09;;;2.03;97.14
52935;BME280;38802;50.198;19.796;2024-02-14T03:52:38;96668.48;;;2.05;97.06
52935;BME280;38802;50.198;19.796;2024-02-14T03:55:06;96674.41;;;1.98;96.59
52935;BME280;38802;50.198;19.796;2024-02-14T03:57:36;96675.73;;;1.95;96.81
52935;BME280;38802;50.198;19.796;2024-02-14T04:00:08;96678.89;;;1.94;96.82
52935;BME280;38802;50.198;19.796;2024-02-14T04:02:40;96678.52;;;1.90;96.73
52935;BME280;38802;50.198;19.796;2024-02-14T04:05:09;96683.34;;;1.94;96.96
52935;BME280;38802;50.198;19.796;2024-02-14T04:07:37;96687.72;;;2.00;97.09
52935;BME280;38802;50.198;19.796;2024-02-14T04:10:06;96691.42;;;2.05;97.14
52935;BME280;38802;50.198;19.796;2024-02-14T04:12:34;96688.21;;;2.08;97.12
52935;BME280;38802;50.198;19.796;2024-02-14T04:15:02;96689.40;;;2.05;96.99
52935;BME280;38802;50.198;19.796;2024-02-14T04:17:31;96692.29;;;2.05;97.03
52935;BME280;38802;50.198;19.796;2024-02-14T04:19:59;96687.81;;;2.06;96.96
52935;BME280;38802;50.198;19.796;2024-02-14T04:22:27;96687.74;;;2.07;96.77
52935;BME280;38802;50.198;19.796;2024-02-14T04:24:55;96690.23;;;2.10;96.94
52935;BME280;38802;50.198;19.796;2024-02-14T04:27:24;96694.52;;;2.13;96.94
52935;BME280;38802;50.198;19.796;2024-02-14T04:29:52;96696.48;;;2.21;97.11
52935;BME280;38802;50.198;19.796;2024-02-14T04:32:20;96694.54;;;2.26;97.09
52935;BME280;38802;50.198;19.796;2024-02-14T04:34:49;96693.90;;;2.29;96.93
52935;BME280;38802;50.198;19.796;2024-02-14T04:37:17;96697.49;;;2.29;96.95
52935;BME280;38802;50.198;19.796;2024-02-14T04:39:46;96696.95;;;2.25;96.68
52935;BME280;38802;50.198;19.796;2024-02-14T04:42:15;96692.91;;;2.24;96.81
52935;BME280;38802;50.198;19.796;2024-02-14T04:44:43;96697.29;;;2.29;97.03
52935;BME280;38802;50.198;19.796;2024-02-14T04:47:11;96696.77;;;2.34;96.93
52935;BME280;38802;50.198;19.796;2024-02-14T04:49:39;96693.61;;;2.36;96.81
52935;BME280;38802;50.198;19.796;2024-02-14T04:52:07;96695.60;;;2.33;96.53
52935;BME280;38802;50.198;19.796;2024-02-14T04:54:36;96694.10;;;2.32;96.50
52935;BME280;38802;50.198;19.796;2024-02-14T04:57:04;96696.90;;;2.31;96.40
52935;BME280;38802;50.198;19.796;2024-02-14T04:59:32;96700.18;;;2.22;95.90
52935;BME280;38802;50.198;19.796;2024-02-14T05:02:00;96695.09;;;2.08;95.73
52935;BME280;38802;50.198;19.796;2024-02-14T05:04:28;96697.58;;;2.02;96.15
52935;BME280;38802;50.198;19.796;2024-02-14T05:06:57;96698.27;;;2.06;96.32
52935;BME280;38802;50.198;19.796;2024-02-14T05:09:26;96698.92;;;2.10;96.56
52935;BME280;38802;50.198;19.796;2024-02-14T05:11:54;96705.61;;;2.14;96.43
52935;BME280;38802;50.198;19.796;2024-02-14T05:14:22;96704.17;;;2.12;96.21
52935;BME280;38802;50.198;19.796;2024-02-14T05:16:51;96706.67;;;2.14;96.29
52935;BME280;38802;50.198;19.796;2024-02-14T05:19:19;96707.48;;;2.11;96.20
52935;BME280;38802;50.198;19.796;2024-02-14T05:21:49;96707.41;;;2.12;96.31
52935;BME280;38802;50.198;19.796;2024-02-14T05:24:17;96708.11;;;2.16;96.46
52935;BME280;38802;50.198;19.796;2024-02-14T05:26:46;96708.41;;;2.22;96.54
52935;BME280;38802;50.198;19.796;2024-02-14T05:29:14;96706.69;;;2.26;96.54
52935;BME280;38802;50.198;19.796;2024-02-14T05:31:44;96706.34;;;2.30;96.64
52935;BME280;38802;50.198;19.796;2024-02-14T05:34:12;96705.41;;;2.32;96.49
52935;BME280;38802;50.198;19.796;2024-02-14T05:36:41;96701.95;;;2.29;96.35
52935;BME280;38802;50.198;19.796;2024-02-14T05:39:14;96703.61;;;2.26;96.08
52935;BME280;38802;50.198;19.796;2024-02-14T05:41:43;96706.83;;;2.14;95.66
52935;BME280;38802;50.198;19.796;2024-02-14T05:44:12;96710.41;;;2.10;95.92
52935;BME280;38802;50.198;19.796;2024-02-14T05:46:40;96712.21;;;2.08;95.88
52935;BME280;38802;50.198;19.796;2024-02-14T05:49:09;96709.79;;;2.09;96.12
52935;BME280;38802;50.198;19.796;2024-02-14T05:51:38;96715.09;;;2.09;95.96
52935;BME280;38802;50.198;19.796;2024-02-14T05:54:06;96719.09;;;1.99;95.64
52935;BME280;38802;50.198;19.796;2024-02-14T05:56:34;96718.73;;;1.91;95.45
52935;BME280;38802;50.198;19.796;2024-02-14T05:59:02;96718.98;;;1.85;95.69
52935;BME280;38802;50.198;19.796;2024-02-14T06:01:30;96718.14;;;1.89;95.90
52935;BME280;38802;50.198;19.796;2024-02-14T06:03:58;96716.49;;;1.96;96.00
52935;BME280;38802;50.198;19.796;2024-02-14T06:06:26;96719.77;;;1.96;95.74
52935;BME280;38802;50.198;19.796;2024-02-14T06:08:54;96717.64;;;1.89;95.57
52935;BME280;38802;50.198;19.796;2024-02-14T06:11:23;96724.10;;;1.90;95.79
52935;BME280;38802;50.198;19.796;2024-02-14T06:13:51;96728.19;;;1.95;95.87
52935;BME280;38802;50.198;19.796;2024-02-14T06:16:19;96726.31;;;1.99;95.95
52935;BME280;38802;50.198;19.796;2024-02-14T06:18:47;96732.59;;;2.04;96.03
52935;BME280;38802;50.198;19.796;2024-02-14T06:21:15;96726.82;;;2.12;96.18
52935;BME280;38802;50.198;19.796;2024-02-14T06:23:43;96727.83;;;2.17;96.04
52935;BME280;38802;50.198;19.796;2024-02-14T06:26:14;96730.80;;;2.19;95.91
52935;BME280;38802;50.198;19.796;2024-02-14T06:28:42;96734.20;;;2.20;95.84
52935;BME280;38802;50.198;19.796;2024-02-14T06:31:10;96735.14;;;2.23;95.72
52935;BME280;38802;50.198;19.796;2024-02-14T06:33:38;96733.10;;;2.26;95.76
52935;BME280;38802;50.198;19.796;2024-02-14T06:36:07;96735.70;;;2.26;95.65
52935;BME280;38802;50.198;19.796;2024-02-14T06:38:35;96737.27;;;2.25;95.56
52935;BME280;38802;50.198;19.796;2024-02-14T06:41:03;96737.24;;;2.26;95.48
52935;BME280;38802;50.198;19.796;2024-02-14T06:43:31;96739.09;;;2.26;95.51
52935;BME280;38802;50.198;19.796;2024-02-14T06:45:59;96743.73;;;2.26;95.35
52935;BME280;38802;50.198;19.796;2024-02-14T06:48:36;96743.64;;;2.20;95.26
52935;BME280;38802;50.198;19.796;2024-02-14T06:51:06;96746.31;;;2.12;95.13
52935;BME280;38802;50.198;19.796;2024-02-14T06:53:34;96745.51;;;2.11;95.41
52935;BME280;38802;50.198;19.796;2024-02-14T06:56:08;96751.01;;;2.11;95.37
52935;BME280;38802;50.198;19.796;2024-02-14T06:58:37;96745.41;;;2.09;95.30
52935;BME280;38802;50.198;19.796;2024-02-14T07:01:05;96753.32;;;2.09;95.20
52935;BME280;38802;50.198;19.796;2024-02-14T07:03:34;96758.90;;;2.07;95.27
52935;BME280;38802;50.198;19.796;2024-02-14T07:06:02;96757.09;;;2.09;95.41
52935;BME280;38802;50.198;19.796;2024-02-14T07:08:30;96762.38;;;2.10;95.41
52935;BME280;38802;50.198;19.796;2024-02-14T07:10:58;96761.16;;;2.10;95.45
52935;BME280;38802;50.198;19.796;2024-02-14T07:13:26;96758.70;;;2.11;95.59
52935;BME280;38802;50.198;19.796;2024-02-14T07:15:54;96760.19;;;2.17;95.80
52935;BME280;38802;50.198;19.796;2024-02-14T07:18:22;96760.99;;;2.18;95.69
52935;BME280;38802;50.198;19.796;2024-02-14T07:20:50;96761.98;;;2.20;95.82
52935;BME280;38802;50.198;19.796;2024-02-14T07:23:19;96761.17;;;2.23;95.89
52935;BME280;38802;50.198;19.796;2024-02-14T07:25:48;96758.55;;;2.28;96.02
52935;BME280;38802;50.198;19.796;2024-02-14T07:28:16;96755.70;;;2.31;96.14
52935;BME280;38802;50.198;19.796;2024-02-14T07:30:45;96757.44;;;2.34;96.27
52935;BME280;38802;50.198;19.796;2024-02-14T07:33:15;96754.42;;;2.37;96.30
52935;BME280;38802;50.198;19.796;2024-02-14T07:35:44;96749.16;;;2.43;96.54
52935;BME280;38802;50.198;19.796;2024-02-14T07:38:12;96748.55;;;2.50;96.63
52935;BME280;38802;50.198;19.796;2024-02-14T07:40:40;96746.91;;;2.56;96.68
52935;BME280;38802;50.198;19.796;2024-02-14T07:43:09;96750.39;;;2.64;96.82
52935;BME280;38802;50.198;19.796;2024-02-14T07:45:37;96752.52;;;2.70;96.84
52935;BME280;38802;50.198;19.796;2024-02-14T07:48:06;96754.35;;;2.75;96.87
52935;BME280;38802;50.198;19.796;2024-02-14T07:50:35;96756.77;;;2.79;96.81
52935;BME280;38802;50.198;19.796;2024-02-14T07:53:05;96751.50;;;2.81;96.88
52935;BME280;38802;50.198;19.796;2024-02-14T07:55:34;96752.41;;;2.84;96.87
52935;BME280;38802;50.198;19.796;2024-02-14T07:58:02;96750.76;;;2.91;96.95
52935;BME280;38802;50.198;19.796;2024-02-14T08:00:30;96748.25;;;2.97;97.02
52935;BME280;38802;50.198;19.796;2024-02-14T08:02:58;96749.66;;;3.04;97.06
52935;BME280;38802;50.198;19.796;2024-02-14T08:05:27;96745.28;;;3.14;97.10
52935;BME280;38802;50.198;19.796;2024-02-14T08:07:55;96745.02;;;3.24;97.17
52935;BME280;38802;50.198;19.796;2024-02-14T08:10:23;96739.16;;;3.35;97.20
52935;BME280;38802;50.198;19.796;2024-02-14T08:12:51;96738.41;;;3.43;96.93
52935;BME280;38802;50.198;19.796;2024-02-14T08:15:19;96740.84;;;3.48;96.39
52935;BME280;38802;50.198;19.796;2024-02-14T08:17:48;96742.08;;;3.51;96.38
52935;BME280;38802;50.198;19.796;2024-02-14T08:20:16;96740.51;;;3.55;96.39
52935;BME280;38802;50.198;19.796;2024-02-14T08:22:46;96742.29;;;3.60;96.32
52935;BME280;38802;50.198;19.796;2024-02-14T08:25:15;96740.56;;;3.65;96.15
52935;BME280;38802;50.198;19.796;2024-02-14T08:27:49;96743.82;;;3.72;96.07
52935;BME280;38802;50.198;19.796;2024-02-14T08:30:17;96746.95;;;3.78;95.82
52935;BME280;38802;50.198;19.796;2024-02-14T08:32:45;96749.98;;;3.83;95.56
52935;BME280;38802;50.198;19.796;2024-02-14T08:35:29;96748.11;;;3.86;95.28
52935;BME280;38802;50.198;19.796;2024-02-14T08:37:57;96750.17;;;3.90;95.30
52935;BME280;38802;50.198;19.796;2024-02-14T08:40:26;96745.48;;;3.95;95.16
52935;BME280;38802;50.198;19.796;2024-02-14T08:42:54;96747.89;;;3.99;94.38
52935;BME280;38802;50.198;19.796;2024-02-14T08:45:22;96749.50;;;4.01;94.64
52935;BME280;38802;50.198;19.796;2024-02-14T08:47:51;96749.84;;;4.08;94.95
52935;BME280;38802;50.198;19.796;2024-02-14T08:50:19;96745.45;;;4.17;94.66
52935;BME280;38802;50.198;19.796;2024-02-14T08:52:47;96744.76;;;4.24;94.22
52935;BME280;38802;50.198;19.796;2024-02-14T08:55:15;96745.66;;;4.26;93.61
52935;BME280;38802;50.198;19.796;2024-02-14T08:57:45;96745.44;;;4.27;93.37
52935;BME280;38802;50.198;19.796;2024-02-14T09:00:16;96745.41;;;4.32;93.38
52935;BME280;38802;50.198;19.796;2024-02-14T09:02:48;96746.04;;;4.33;92.79
52935;BME280;38802;50.198;19.796;2024-02-14T09:05:16;96740.48;;;4.41;93.46
52935;BME280;38802;50.198;19.796;2024-02-14T09:07:45;96738.72;;;4.52;93.42
52935;BME280;38802;50.198;19.796;2024-02-14T09:10:13;96738.23;;;4.58;92.86
52935;BME280;38802;50.198;19.796;2024-02-14T09:12:42;96738.71;;;4.62;92.22
52935;BME280;38802;50.198;19.796;2024-02-14T09:15:10;96735.08;;;4.63;91.64
52935;BME280;38802;50.198;19.796;2024-02-14T09:17:40;96734.64;;;4.65;91.59
52935;BME280;38802;50.198;19.796;2024-02-14T09:20:09;96733.80;;;4.64;91.01
52935;BME280;38802;50.198;19.796;2024-02-14T09:22:38;96735.25;;;4.63;90.85
52935;BME280;38802;50.198;19.796;2024-02-14T09:25:09;96736.84;;;4.65;90.80
52935;BME280;38802;50.198;19.796;2024-02-14T09:27:38;96739.54;;;4.66;89.98
52935;BME280;38802;50.198;19.796;2024-02-14T09:30:06;96737.43;;;4.67;90.35
52935;BME280;38802;50.198;19.796;2024-02-14T09:32:36;96741.64;;;4.72;90.53
52935;BME280;38802;50.198;19.796;2024-02-14T09:35:04;96740.98;;;4.86;90.05
52935;BME280;38802;50.198;19.796;2024-02-14T09:37:35;96738.36;;;4.99;89.17
52935;BME280;38802;50.198;19.796;2024-02-14T09:40:06;96736.14;;;5.06;88.85
52935;BME280;38802;50.198;19.796;2024-02-14T09:42:43;96735.83;;;5.05;88.78
52935;BME280;38802;50.198;19.796;2024-02-14T09:45:14;96735.19;;;5.08;88.80
52935;BME280;38802;50.198;19.796;2024-02-14T09:47:49;96736.92;;;5.08;87.58
52935;BME280;38802;50.198;19.796;2024-02-14T09:50:19;96733.02;;;5.03;86.01
52935;BME280;38802;50.198;19.796;2024-02-14T09:52:48;96734.58;;;5.09;86.57
52935;BME280;38802;50.198;19.796;2024-02-14T09:55:17;96735.67;;;5.18;84.72
52935;BME280;38802;50.198;19.796;2024-02-14T09:57:46;96738.52;;;5.23;85.52
52935;BME280;38802;50.198;19.796;2024-02-14T10:00:15;96737.43;;;5.30;85.63
52935;BME280;38802;50.198;19.796;2024-02-14T10:02:43;96739.42;;;5.42;84.50
52935;BME280;38802;50.198;19.796;2024-02-14T10:05:11;96741.14;;;5.48;85.07
52935;BME280;38802;50.198;19.796;2024-02-14T10:07:41;96737.80;;;5.55;85.37
52935;BME280;38802;50.198;19.796;2024-02-14T10:10:11;96731.77;;;5.62;85.61
52935;BME280;38802;50.198;19.796;2024-02-14T10:12:39;96733.66;;;5.65;85.06
52935;BME280;38802;50.198;19.796;2024-02-14T10:15:09;96733.21;;;5.67;83.73
52935;BME280;38802;50.198;19.796;2024-02-14T10:17:39;96729.02;;;5.65;83.89
52935;BME280;38802;50.198;19.796;2024-02-14T10:20:09;96728.92;;;5.67;83.91
52935;BME280;38802;50.198;19.796;2024-02-14T10:22:38;96722.60;;;5.69;83.87
52935;BME280;38802;50.198;19.796;2024-02-14T10:25:07;96721.04;;;5.72;83.79
52935;BME280;38802;50.198;19.796;2024-02-14T10:27:39;96727.39;;;5.76;82.82
52935;BME280;38802;50.198;19.796;2024-02-14T10:30:08;96727.73;;;5.79;83.26
52935;BME280;38802;50.198;19.796;2024-02-14T10:32:41;96723.05;;;5.86;82.57
52935;BME280;38802;50.198;19.796;2024-02-14T10:35:15;96720.19;;;5.87;82.91
52935;BME280;38802;50.198;19.796;2024-02-14T10:37:44;96718.16;;;5.87;82.86
52935;BME280;38802;50.198;19.796;2024-02-14T10:40:12;96716.30;;;5.89;82.88
52935;BME280;38802;50.198;19.796;2024-02-14T10:42:40;96714.92;;;5.93;82.40
52935;BME280;38802;50.198;19.796;2024-02-14T10:45:08;96716.72;;;5.94;83.07
52935;BME280;38802;50.198;19.796;2024-02-14T10:47:39;96715.48;;;5.98;82.38
52935;BME280;38802;50.198;19.796;2024-02-14T10:50:09;96714.19;;;5.96;81.96
52935;BME280;38802;50.198;19.796;2024-02-14T10:52:41;96713.34;;;5.93;82.24
52935;BME280;38802;50.198;19.796;2024-02-14T10:55:10;96717.77;;;5.91;81.56
52935;BME280;38802;50.198;19.796;2024-02-14T10:57:40;96718.39;;;5.86;81.30
52935;BME280;38802;50.198;19.796;2024-02-14T11:00:27;96716.35;;;5.85;82.19
52935;BME280;38802;50.198;19.796;2024-02-14T11:02:56;96711.04;;;5.87;82.24
52935;BME280;38802;50.198;19.796;2024-02-14T11:05:24;96708.89;;;5.89;80.80
52935;BME280;38802;50.198;19.796;2024-02-14T11:07:53;96704.61;;;5.89;81.16
52935;BME280;38802;50.198;19.796;2024-02-14T11:10:22;96703.75;;;5.85;81.03
52935;BME280;38802;50.198;19.796;2024-02-14T11:12:54;96699.20;;;5.84;81.18
52935;BME280;38802;50.198;19.796;2024-02-14T11:15:23;96697.20;;;5.89;81.24
52935;BME280;38802;50.198;19.796;2024-02-14T11:18:05;96693.61;;;5.91;81.43
52935;BME280;38802;50.198;19.796;2024-02-14T11:20:38;96692.63;;;5.96;81.59
52935;BME280;38802;50.198;19.796;2024-02-14T11:23:08;96691.67;;;6.04;80.31
52935;BME280;38802;50.198;19.796;2024-02-14T11:25:39;96688.49;;;6.09;80.01
52935;BME280;38802;50.198;19.796;2024-02-14T11:28:19;96687.52;;;6.11;80.34
52935;BME280;38802;50.198;19.796;2024-02-14T11:30:51;96682.11;;;6.09;79.68
52935;BME280;38802;50.198;19.796;2024-02-14T11:33:22;96681.88;;;6.10;80.63
52935;BME280;38802;50.198;19.796;2024-02-14T11:35:53;96679.58;;;6.17;79.80
52935;BME280;38802;50.198;19.796;2024-02-14T11:38:24;96675.18;;;6.18;79.30
52935;BME280;38802;50.198;19.796;2024-02-14T11:40:56;96673.45;;;6.16;79.56
52935;BME280;38802;50.198;19.796;2024-02-14T11:43:25;96673.91;;;6.20;79.79
52935;BME280;38802;50.198;19.796;2024-02-14T11:45:53;96672.63;;;6.21;79.52
52935;BME280;38802;50.198;19.796;2024-02-14T11:48:21;96672.40;;;6.22;78.07
52935;BME280;38802;50.198;19.796;2024-02-14T11:50:53;96674.50;;;6.18;79.19
52935;BME280;38802;50.198;19.796;2024-02-14T11:53:22;96673.86;;;6.20;79.42
52935;BME280;38802;50.198;19.796;2024-02-14T11:55:50;96673.65;;;6.24;78.68
52935;BME280;38802;50.198;19.796;2024-02-14T11:58:18;96672.15;;;6.29;78.81
52935;BME280;38802;50.198;19.796;2024-02-14T12:00:47;96666.70;;;6.34;78.86
52935;BME280;38802;50.198;19.796;2024-02-14T12:03:23;96668.36;;;6.35;78.56
52935;BME280;38802;50.198;19.796;2024-02-14T12:05:54;96667.43;;;6.33;79.04
52935;BME280;38802;50.198;19.796;2024-02-14T12:08:25;96661.17;;;6.34;78.33
52935;BME280;38802;50.198;19.796;2024-02-14T12:10:53;96658.81;;;6.36;77.92
52935;BME280;38802;50.198;19.796;2024-02-14T12:13:21;96658.97;;;6.39;77.66
52935;BME280;38802;50.198;19.796;2024-02-14T12:15:51;96653.55;;;6.43;78.19
52935;BME280;38802;50.198;19.796;2024-02-14T12:18:20;96656.48;;;6.49;77.14
52935;BME280;38802;50.198;19.796;2024-02-14T12:20:50;96652.05;;;6.51;77.13
52935;BME280;38802;50.198;19.796;2024-02-14T12:23:23;96644.51;;;6.50;77.33
52935;BME280;38802;50.198;19.796;2024-02-14T12:26:01;96649.00;;;6.50;76.89
52935;BME280;38802;50.198;19.796;2024-02-14T12:28:30;96649.17;;;6.47;77.21
52935;BME280;38802;50.198;19.796;2024-02-14T12:30:59;96642.55;;;6.48;77.82
52935;BME280;38802;50.198;19.796;2024-02-14T12:33:27;96637.84;;;6.46;77.08
52935;BME280;38802;50.198;19.796;2024-02-14T12:35:57;96639.70;;;6.41;76.91
52935;BME280;38802;50.198;19.796;2024-02-14T12:38:26;96640.75;;;6.40;76.94
52935;BME280;38802;50.198;19.796;2024-02-14T12:40:54;96642.16;;;6.46;77.02
52935;BME280;38802;50.198;19.796;2024-02-14T12:43:22;96638.30;;;6.50;75.26
52935;BME280;38802;50.198;19.796;2024-02-14T12:45:51;96643.39;;;6.48;76.31
52935;BME280;38802;50.198;19.796;2024-02-14T12:48:23;96636.52;;;6.47;76.57
52935;BME280;38802;50.198;19.796;2024-02-14T12:50:57;96639.16;;;6.50;76.23
52935;BME280;38802;50.198;19.796;2024-02-14T12:53:26;96638.07;;;6.51;75.77
52935;BME280;38802;50.198;19.796;2024-02-14T12:55:54;96634.98;;;6.51;75.94
52935;BME280;38802;50.198;19.796;2024-02-14T12:58:23;96636.42;;;6.50;75.73
52935;BME280;38802;50.198;19.796;2024-02-14T13:00:51;96636.80;;;6.43;76.08
52935;BME280;38802;50.198;19.796;2024-02-14T13:03:19;96641.14;;;6.43;75.34
52935;BME280;38802;50.198;19.796;2024-02-14T13:05:49;96639.86;;;6.44;75.52
52935;BME280;38802;50.198;19.796;2024-02-14T13:08:17;96635.41;;;6.46;75.85
52935;BME280;38802;50.198;19.796;2024-02-14T13:10:46;96638.20;;;6.48;76.13